sensor_id;sensor_type;location;lat;lon;timestamp;P1;durP1;ratioP1;P2;durP2;ratioP2
25365;SDS011;13315;48.274;-1.900;2022-12-11T00:01:49;21.88;;;14.43;;
25365;SDS011;13315;48.274;-1.900;2022-12-11T00:04:15;27.08;;;15.68;;
25365;SDS011;13315;48.274;-1.900;2022-12-11T00:06:41;26.63;;;15.02;;
25365;SDS011;13315;48.274;-1.900;2022-12-11T00:09:08;24.50;;;15.10;;
25365;SDS011;13315;48.274;-1.900;2022-12-11T00:11:34;26.63;;;15.80;;
25365;SDS011;13315;48.274;-1.900;2022-12-11T00:14:00;26.58;;;15.90;;
25365;SDS011;13315;48.274;-1.900;2022-12-11T00:16:26;26.70;;;15.98;;
25365;SDS011;13315;48.274;-1.900;2022-12-11T00:18:53;25.15;;;15.88;;
25365;SDS011;13315;48.274;-1.900;2022-12-11T00:21:19;28.75;;;17.88;;
25365;SDS011;13315;48.274;-1.900;2022-12-11T00:23:45;29.15;;;17.05;;
25365;SDS011;13315;48.274;-1.900;2022-12-11T00:26:12;32.60;;;16.88;;
25365;SDS011;13315;48.274;-1.900;2022-12-11T00:28:38;29.92;;;16.92;;
25365;SDS011;13315;48.274;-1.900;2022-12-11T00:31:05;29.15;;;16.75;;
25365;SDS011;13315;48.274;-1.900;2022-12-11T00:33:31;30.17;;;17.35;;
25365;SDS011;13315;48.274;-1.900;2022-12-11T00:35:58;31.92;;;17.30;;
25365;SDS011;13315;48.274;-1.900;2022-12-11T00:38:24;27.55;;;17.23;;
25365;SDS011;13315;48.274;-1.900;2022-12-11T00:40:50;30.20;;;17.48;;
25365;SDS011;13315;48.274;-1.900;2022-12-11T00:43:16;34.30;;;17.75;;
25365;SDS011;13315;48.274;-1.900;2022-12-11T00:45:43;30.42;;;17.48;;
25365;SDS011;13315;48.274;-1.900;2022-12-11T00:48:09;32.78;;;17.63;;
25365;SDS011;13315;48.274;-1.900;2022-12-11T00:50:36;27.08;;;16.83;;
25365;SDS011;13315;48.274;-1.900;2022-12-11T00:53:03;33.00;;;16.98;;
25365;SDS011;13315;48.274;-1.900;2022-12-11T00:55:30;29.05;;;16.80;;
25365;SDS011;13315;48.274;-1.900;2022-12-11T00:57:56;30.52;;;16.15;;
25365;SDS011;13315;48.274;-1.900;2022-12-11T01:00:22;24.15;;;15.48;;
25365;SDS011;13315;48.274;-1.900;2022-12-11T01:02:48;31.48;;;16.33;;
25365;SDS011;13315;48.274;-1.900;2022-12-11T01:05:15;27.23;;;16.23;;
25365;SDS011;13315;48.274;-1.900;2022-12-11T01:07:41;28.98;;;15.20;;
25365;SDS011;13315;48.274;-1.900;2022-12-11T01:10:07;24.60;;;15.57;;
25365;SDS011;13315;48.274;-1.900;2022-12-11T01:13:03;28.35;;;15.48;;
25365;SDS011;13315;48.274;-1.900;2022-12-11T01:15:30;28.35;;;16.30;;
25365;SDS011;13315;48.274;-1.900;2022-12-11T01:17:57;30.58;;;15.73;;
25365;SDS011;13315;48.274;-1.900;2022-12-11T01:20:23;29.95;;;16.67;;
25365;SDS011;13315;48.274;-1.900;2022-12-11T01:22:54;23.95;;;15.43;;
25365;SDS011;13315;48.274;-1.900;2022-12-11T01:25:20;30.42;;;15.48;;
25365;SDS011;13315;48.274;-1.900;2022-12-11T01:27:48;28.08;;;16.25;;
25365;SDS011;13315;48.274;-1.900;2022-12-11T01:30:15;26.17;;;15.40;;
25365;SDS011;13315;48.274;-1.900;2022-12-11T01:32:41;28.58;;;15.57;;
25365;SDS011;13315;48.274;-1.900;2022-12-11T01:35:07;24.42;;;15.35;;
25365;SDS011;13315;48.274;-1.900;2022-12-11T01:37:33;25.70;;;15.57;;
25365;SDS011;13315;48.274;-1.900;2022-12-11T01:40:00;27.15;;;14.98;;
25365;SDS011;13315;48.274;-1.900;2022-12-11T01:42:26;28.60;;;15.73;;
25365;SDS011;13315;48.274;-1.900;2022-12-11T01:47:38;23.38;;;15.07;;
25365;SDS011;13315;48.274;-1.900;2022-12-11T01:50:04;31.35;;;16.17;;
25365;SDS011;13315;48.274;-1.900;2022-12-11T01:52:30;31.17;;;15.57;;
25365;SDS011;13315;48.274;-1.900;2022-12-11T01:54:56;23.73;;;15.48;;
25365;SDS011;13315;48.274;-1.900;2022-12-11T01:57:22;31.58;;;17.45;;
25365;SDS011;13315;48.274;-1.900;2022-12-11T01:59:48;27.60;;;15.82;;
25365;SDS011;13315;48.274;-1.900;2022-12-11T02:02:19;24.17;;;15.77;;
25365;SDS011;13315;48.274;-1.900;2022-12-11T02:04:46;27.55;;;16.35;;
25365;SDS011;13315;48.274;-1.900;2022-12-11T02:07:13;25.42;;;16.73;;
25365;SDS011;13315;48.274;-1.900;2022-12-11T02:09:40;26.08;;;16.20;;
25365;SDS011;13315;48.274;-1.900;2022-12-11T02:17:12;26.48;;;15.65;;
25365;SDS011;13315;48.274;-1.900;2022-12-11T02:22:07;26.40;;;15.48;;
25365;SDS011;13315;48.274;-1.900;2022-12-11T02:29:41;26.25;;;15.55;;
25365;SDS011;13315;48.274;-1.900;2022-12-11T02:32:18;29.65;;;17.15;;
25365;SDS011;13315;48.274;-1.900;2022-12-11T02:34:48;27.45;;;16.30;;
25365;SDS011;13315;48.274;-1.900;2022-12-11T02:37:18;28.00;;;16.35;;
25365;SDS011;13315;48.274;-1.900;2022-12-11T02:39:46;28.40;;;16.48;;
25365;SDS011;13315;48.274;-1.900;2022-12-11T02:42:14;27.08;;;17.30;;
25365;SDS011;13315;48.274;-1.900;2022-12-11T02:44:41;27.38;;;16.58;;
25365;SDS011;13315;48.274;-1.900;2022-12-11T02:47:10;33.00;;;16.67;;
25365;SDS011;13315;48.274;-1.900;2022-12-11T02:49:37;30.17;;;17.77;;
25365;SDS011;13315;48.274;-1.900;2022-12-11T02:52:05;27.60;;;16.50;;
25365;SDS011;13315;48.274;-1.900;2022-12-11T02:54:33;29.50;;;16.67;;
25365;SDS011;13315;48.274;-1.900;2022-12-11T02:57:02;32.80;;;17.50;;
25365;SDS011;13315;48.274;-1.900;2022-12-11T02:59:38;26.20;;;15.57;;
25365;SDS011;13315;48.274;-1.900;2022-12-11T03:02:05;31.25;;;17.75;;
25365;SDS011;13315;48.274;-1.900;2022-12-11T03:04:32;27.65;;;16.10;;
25365;SDS011;13315;48.274;-1.900;2022-12-11T03:07:00;34.50;;;18.13;;
25365;SDS011;13315;48.274;-1.900;2022-12-11T03:09:36;31.20;;;17.52;;
25365;SDS011;13315;48.274;-1.900;2022-12-11T03:12:03;31.58;;;16.65;;
25365;SDS011;13315;48.274;-1.900;2022-12-11T03:14:29;31.58;;;17.20;;
25365;SDS011;13315;48.274;-1.900;2022-12-11T03:17:07;29.27;;;17.23;;
25365;SDS011;13315;48.274;-1.900;2022-12-11T03:19:38;32.25;;;16.83;;
25365;SDS011;13315;48.274;-1.900;2022-12-11T03:22:10;34.03;;;17.73;;
25365;SDS011;13315;48.274;-1.900;2022-12-11T03:24:44;31.30;;;17.42;;
25365;SDS011;13315;48.274;-1.900;2022-12-11T03:27:24;27.55;;;17.40;;
25365;SDS011;13315;48.274;-1.900;2022-12-11T03:29:56;29.10;;;17.20;;
25365;SDS011;13315;48.274;-1.900;2022-12-11T03:32:24;35.53;;;17.15;;
25365;SDS011;13315;48.274;-1.900;2022-12-11T03:35:05;30.10;;;17.27;;
25365;SDS011;13315;48.274;-1.900;2022-12-11T03:37:33;32.53;;;18.30;;
25365;SDS011;13315;48.274;-1.900;2022-12-11T03:40:03;34.25;;;18.98;;
25365;SDS011;13315;48.274;-1.900;2022-12-11T03:42:31;28.83;;;17.48;;
25365;SDS011;13315;48.274;-1.900;2022-12-11T03:44:58;32.55;;;17.27;;
25365;SDS011;13315;48.274;-1.900;2022-12-11T03:47:24;35.47;;;17.88;;
25365;SDS011;13315;48.274;-1.900;2022-12-11T03:49:51;35.47;;;18.75;;
25365;SDS011;13315;48.274;-1.900;2022-12-11T03:52:18;31.70;;;16.40;;
25365;SDS011;13315;48.274;-1.900;2022-12-11T03:54:45;30.42;;;16.83;;
25365;SDS011;13315;48.274;-1.900;2022-12-11T03:57:13;35.22;;;18.67;;
25365;SDS011;13315;48.274;-1.900;2022-12-11T03:59:39;30.75;;;18.05;;
25365;SDS011;13315;48.274;-1.900;2022-12-11T04:02:06;31.02;;;17.77;;
25365;SDS011;13315;48.274;-1.900;2022-12-11T04:04:34;32.60;;;17.85;;
25365;SDS011;13315;48.274;-1.900;2022-12-11T04:07:00;29.08;;;17.15;;
25365;SDS011;13315;48.274;-1.900;2022-12-11T04:09:26;30.65;;;17.15;;
25365;SDS011;13315;48.274;-1.900;2022-12-11T04:11:52;35.10;;;18.15;;
25365;SDS011;13315;48.274;-1.900;2022-12-11T04:14:19;30.92;;;17.67;;
25365;SDS011;13315;48.274;-1.900;2022-12-11T04:17:03;32.63;;;17.65;;
25365;SDS011;13315;48.274;-1.900;2022-12-11T04:19:30;30.80;;;17.75;;
25365;SDS011;13315;48.274;-1.900;2022-12-11T04:22:16;29.42;;;16.83;;
25365;SDS011;13315;48.274;-1.900;2022-12-11T04:25:01;29.30;;;16.70;;
25365;SDS011;13315;48.274;-1.900;2022-12-11T04:27:27;30.63;;;17.20;;
25365;SDS011;13315;48.274;-1.900;2022-12-11T04:30:14;31.55;;;16.52;;
25365;SDS011;13315;48.274;-1.900;2022-12-11T04:32:40;35.97;;;18.27;;
25365;SDS011;13315;48.274;-1.900;2022-12-11T04:35:07;36.20;;;18.92;;
25365;SDS011;13315;48.274;-1.900;2022-12-11T04:37:33;31.73;;;16.98;;
25365;SDS011;13315;48.274;-1.900;2022-12-11T04:39:59;30.17;;;17.45;;
25365;SDS011;13315;48.274;-1.900;2022-12-11T04:42:25;29.02;;;16.58;;
25365;SDS011;13315;48.274;-1.900;2022-12-11T04:44:51;32.10;;;17.98;;
25365;SDS011;13315;48.274;-1.900;2022-12-11T04:47:17;28.98;;;16.95;;
25365;SDS011;13315;48.274;-1.900;2022-12-11T04:49:44;30.63;;;15.35;;
25365;SDS011;13315;48.274;-1.900;2022-12-11T04:52:10;32.58;;;16.40;;
25365;SDS011;13315;48.274;-1.900;2022-12-11T04:54:36;32.08;;;17.35;;
25365;SDS011;13315;48.274;-1.900;2022-12-11T04:57:02;30.52;;;16.65;;
25365;SDS011;13315;48.274;-1.900;2022-12-11T04:59:28;29.65;;;16.90;;
25365;SDS011;13315;48.274;-1.900;2022-12-11T05:01:56;32.83;;;17.85;;
25365;SDS011;13315;48.274;-1.900;2022-12-11T05:04:22;28.17;;;15.35;;
25365;SDS011;13315;48.274;-1.900;2022-12-11T05:06:48;32.00;;;17.13;;
25365;SDS011;13315;48.274;-1.900;2022-12-11T05:09:15;30.65;;;15.82;;
25365;SDS011;13315;48.274;-1.900;2022-12-11T05:11:41;32.45;;;17.20;;
25365;SDS011;13315;48.274;-1.900;2022-12-11T05:14:07;34.97;;;17.38;;
25365;SDS011;13315;48.274;-1.900;2022-12-11T05:16:33;30.20;;;17.30;;
25365;SDS011;13315;48.274;-1.900;2022-12-11T05:18:59;31.70;;;15.32;;
25365;SDS011;13315;48.274;-1.900;2022-12-11T05:21:25;31.08;;;16.27;;
25365;SDS011;13315;48.274;-1.900;2022-12-11T05:23:51;27.60;;;15.48;;
25365;SDS011;13315;48.274;-1.900;2022-12-11T05:26:19;29.75;;;15.93;;
25365;SDS011;13315;48.274;-1.900;2022-12-11T05:28:45;25.15;;;13.95;;
25365;SDS011;13315;48.274;-1.900;2022-12-11T05:31:12;29.60;;;16.23;;
25365;SDS011;13315;48.274;-1.900;2022-12-11T05:33:39;30.50;;;16.45;;
25365;SDS011;13315;48.274;-1.900;2022-12-11T05:36:06;31.73;;;16.63;;
25365;SDS011;13315;48.274;-1.900;2022-12-11T05:38:32;35.13;;;15.93;;
25365;SDS011;13315;48.274;-1.900;2022-12-11T05:40:59;30.90;;;16.13;;
25365;SDS011;13315;48.274;-1.900;2022-12-11T05:43:25;31.85;;;15.00;;
25365;SDS011;13315;48.274;-1.900;2022-12-11T05:45:52;32.67;;;16.38;;
25365;SDS011;13315;48.274;-1.900;2022-12-11T05:48:19;32.40;;;15.82;;
25365;SDS011;13315;48.274;-1.900;2022-12-11T05:50:54;26.80;;;14.70;;
25365;SDS011;13315;48.274;-1.900;2022-12-11T05:53:21;28.35;;;15.45;;
25365;SDS011;13315;48.274;-1.900;2022-12-11T05:55:47;28.73;;;15.95;;
25365;SDS011;13315;48.274;-1.900;2022-12-11T05:58:13;30.35;;;16.10;;
25365;SDS011;13315;48.274;-1.900;2022-12-11T06:00:42;34.53;;;16.33;;
25365;SDS011;13315;48.274;-1.900;2022-12-11T06:03:09;29.77;;;15.13;;
25365;SDS011;13315;48.274;-1.900;2022-12-11T06:05:38;30.35;;;15.90;;
25365;SDS011;13315;48.274;-1.900;2022-12-11T06:08:05;28.75;;;15.45;;
25365;SDS011;13315;48.274;-1.900;2022-12-11T06:10:31;29.23;;;15.02;;
25365;SDS011;13315;48.274;-1.900;2022-12-11T06:12:57;28.42;;;15.10;;
25365;SDS011;13315;48.274;-1.900;2022-12-11T06:15:23;30.00;;;14.90;;
25365;SDS011;13315;48.274;-1.900;2022-12-11T06:17:49;32.13;;;15.30;;
25365;SDS011;13315;48.274;-1.900;2022-12-11T06:20:15;26.20;;;13.88;;
25365;SDS011;13315;48.274;-1.900;2022-12-11T06:22:41;29.30;;;15.00;;
25365;SDS011;13315;48.274;-1.900;2022-12-11T06:25:08;29.60;;;14.38;;
25365;SDS011;13315;48.274;-1.900;2022-12-11T06:27:34;30.33;;;15.77;;
25365;SDS011;13315;48.274;-1.900;2022-12-11T06:30:00;31.92;;;15.95;;
25365;SDS011;13315;48.274;-1.900;2022-12-11T06:32:26;27.70;;;15.07;;
25365;SDS011;13315;48.274;-1.900;2022-12-11T06:34:52;29.33;;;15.65;;
25365;SDS011;13315;48.274;-1.900;2022-12-11T06:37:18;28.42;;;14.30;;
25365;SDS011;13315;48.274;-1.900;2022-12-11T06:39:44;25.92;;;14.18;;
25365;SDS011;13315;48.274;-1.900;2022-12-11T06:42:10;27.67;;;14.10;;
25365;SDS011;13315;48.274;-1.900;2022-12-11T06:44:37;27.30;;;13.75;;
25365;SDS011;13315;48.274;-1.900;2022-12-11T06:47:03;29.55;;;14.65;;
25365;SDS011;13315;48.274;-1.900;2022-12-11T06:49:29;24.13;;;12.07;;
25365;SDS011;13315;48.274;-1.900;2022-12-11T06:51:56;27.52;;;13.88;;
25365;SDS011;13315;48.274;-1.900;2022-12-11T06:54:25;27.55;;;13.25;;
25365;SDS011;13315;48.274;-1.900;2022-12-11T06:56:52;27.73;;;14.13;;
25365;SDS011;13315;48.274;-1.900;2022-12-11T06:59:18;30.35;;;13.60;;
25365;SDS011;13315;48.274;-1.900;2022-12-11T07:01:44;27.70;;;14.40;;
25365;SDS011;13315;48.274;-1.900;2022-12-11T07:04:10;26.23;;;13.45;;
25365;SDS011;13315;48.274;-1.900;2022-12-11T07:06:36;29.50;;;13.80;;
25365;SDS011;13315;48.274;-1.900;2022-12-11T07:09:03;26.02;;;13.48;;
25365;SDS011;13315;48.274;-1.900;2022-12-11T07:11:29;25.98;;;14.00;;
25365;SDS011;13315;48.274;-1.900;2022-12-11T07:13:58;25.27;;;12.90;;
25365;SDS011;13315;48.274;-1.900;2022-12-11T07:18:51;24.65;;;13.82;;
25365;SDS011;13315;48.274;-1.900;2022-12-11T07:21:18;28.17;;;13.82;;
25365;SDS011;13315;48.274;-1.900;2022-12-11T07:23:45;25.40;;;13.68;;
25365;SDS011;13315;48.274;-1.900;2022-12-11T07:26:13;28.50;;;13.80;;
25365;SDS011;13315;48.274;-1.900;2022-12-11T07:28:39;28.45;;;13.77;;
25365;SDS011;13315;48.274;-1.900;2022-12-11T07:31:19;27.75;;;13.70;;
25365;SDS011;13315;48.274;-1.900;2022-12-11T07:33:46;29.70;;;13.85;;
25365;SDS011;13315;48.274;-1.900;2022-12-11T07:36:12;24.80;;;14.05;;
25365;SDS011;13315;48.274;-1.900;2022-12-11T07:38:39;27.10;;;13.52;;
25365;SDS011;13315;48.274;-1.900;2022-12-11T07:41:06;26.35;;;13.68;;
25365;SDS011;13315;48.274;-1.900;2022-12-11T07:43:33;28.83;;;13.65;;
25365;SDS011;13315;48.274;-1.900;2022-12-11T07:46:21;28.13;;;12.98;;
25365;SDS011;13315;48.274;-1.900;2022-12-11T07:48:46;27.17;;;13.77;;
25365;SDS011;13315;48.274;-1.900;2022-12-11T07:51:15;25.25;;;13.02;;
25365;SDS011;13315;48.274;-1.900;2022-12-11T07:53:42;24.85;;;13.30;;
25365;SDS011;13315;48.274;-1.900;2022-12-11T07:56:08;28.67;;;13.75;;
25365;SDS011;13315;48.274;-1.900;2022-12-11T07:58:34;24.98;;;13.70;;
25365;SDS011;13315;48.274;-1.900;2022-12-11T08:01:02;27.55;;;13.60;;
25365;SDS011;13315;48.274;-1.900;2022-12-11T08:03:28;29.15;;;14.63;;
25365;SDS011;13315;48.274;-1.900;2022-12-11T08:05:55;23.92;;;13.48;;
25365;SDS011;13315;48.274;-1.900;2022-12-11T08:08:21;22.13;;;12.55;;
25365;SDS011;13315;48.274;-1.900;2022-12-11T08:10:47;27.05;;;13.77;;
25365;SDS011;13315;48.274;-1.900;2022-12-11T08:13:13;23.48;;;13.23;;
25365;SDS011;13315;48.274;-1.900;2022-12-11T08:15:39;22.42;;;13.27;;
25365;SDS011;13315;48.274;-1.900;2022-12-11T08:18:05;25.45;;;13.65;;
25365;SDS011;13315;48.274;-1.900;2022-12-11T08:20:31;30.13;;;13.93;;
25365;SDS011;13315;48.274;-1.900;2022-12-11T08:22:57;24.67;;;13.15;;
25365;SDS011;13315;48.274;-1.900;2022-12-11T08:25:24;25.60;;;14.30;;
25365;SDS011;13315;48.274;-1.900;2022-12-11T08:27:50;22.55;;;12.98;;
25365;SDS011;13315;48.274;-1.900;2022-12-11T08:30:16;23.20;;;12.50;;
25365;SDS011;13315;48.274;-1.900;2022-12-11T08:32:42;24.40;;;13.07;;
25365;SDS011;13315;48.274;-1.900;2022-12-11T08:35:08;24.85;;;13.38;;
25365;SDS011;13315;48.274;-1.900;2022-12-11T08:37:34;22.67;;;11.98;;
25365;SDS011;13315;48.274;-1.900;2022-12-11T08:40:00;27.95;;;13.98;;
25365;SDS011;13315;48.274;-1.900;2022-12-11T08:42:26;22.92;;;13.18;;
25365;SDS011;13315;48.274;-1.900;2022-12-11T08:44:52;22.00;;;13.32;;
25365;SDS011;13315;48.274;-1.900;2022-12-11T08:47:18;25.33;;;12.95;;
25365;SDS011;13315;48.274;-1.900;2022-12-11T08:49:44;23.40;;;12.27;;
25365;SDS011;13315;48.274;-1.900;2022-12-11T08:52:11;27.92;;;12.88;;
25365;SDS011;13315;48.274;-1.900;2022-12-11T08:54:37;25.15;;;12.60;;
25365;SDS011;13315;48.274;-1.900;2022-12-11T08:57:03;24.30;;;12.88;;
25365;SDS011;13315;48.274;-1.900;2022-12-11T08:59:29;26.30;;;13.38;;
25365;SDS011;13315;48.274;-1.900;2022-12-11T09:01:55;26.35;;;13.13;;
25365;SDS011;13315;48.274;-1.900;2022-12-11T09:04:21;22.20;;;12.65;;
25365;SDS011;13315;48.274;-1.900;2022-12-11T09:06:48;24.92;;;13.60;;
25365;SDS011;13315;48.274;-1.900;2022-12-11T09:09:14;27.63;;;13.40;;
25365;SDS011;13315;48.274;-1.900;2022-12-11T09:11:40;27.73;;;13.40;;
25365;SDS011;13315;48.274;-1.900;2022-12-11T09:14:06;31.10;;;15.35;;
25365;SDS011;13315;48.274;-1.900;2022-12-11T09:16:32;28.40;;;14.30;;
25365;SDS011;13315;48.274;-1.900;2022-12-11T09:19:01;27.02;;;14.02;;
25365;SDS011;13315;48.274;-1.900;2022-12-11T09:21:28;23.92;;;12.70;;
25365;SDS011;13315;48.274;-1.900;2022-12-11T09:23:55;26.73;;;13.57;;
25365;SDS011;13315;48.274;-1.900;2022-12-11T09:26:22;25.67;;;13.98;;
25365;SDS011;13315;48.274;-1.900;2022-12-11T09:28:48;22.48;;;13.70;;
25365;SDS011;13315;48.274;-1.900;2022-12-11T09:31:22;24.40;;;13.75;;
25365;SDS011;13315;48.274;-1.900;2022-12-11T09:33:49;27.67;;;13.30;;
25365;SDS011;13315;48.274;-1.900;2022-12-11T09:36:16;29.33;;;14.00;;
25365;SDS011;13315;48.274;-1.900;2022-12-11T09:38:42;26.50;;;14.07;;
25365;SDS011;13315;48.274;-1.900;2022-12-11T09:46:36;25.25;;;13.52;;
25365;SDS011;13315;48.274;-1.900;2022-12-11T09:49:03;22.88;;;12.65;;
25365;SDS011;13315;48.274;-1.900;2022-12-11T09:51:34;25.38;;;12.50;;
25365;SDS011;13315;48.274;-1.900;2022-12-11T09:54:02;24.10;;;13.32;;
25365;SDS011;13315;48.274;-1.900;2022-12-11T10:07:57;25.13;;;13.52;;
25365;SDS011;13315;48.274;-1.900;2022-12-11T10:10:15;26.52;;;13.30;;
25365;SDS011;13315;48.274;-1.900;2022-12-11T10:12:47;23.15;;;11.93;;
25365;SDS011;13315;48.274;-1.900;2022-12-11T10:17:49;22.70;;;12.15;;
25365;SDS011;13315;48.274;-1.900;2022-12-11T10:20:29;24.92;;;13.35;;
25365;SDS011;13315;48.274;-1.900;2022-12-11T10:22:59;21.48;;;11.48;;
25365;SDS011;13315;48.274;-1.900;2022-12-11T10:25:33;22.60;;;11.90;;
25365;SDS011;13315;48.274;-1.900;2022-12-11T10:28:21;25.20;;;12.05;;
25365;SDS011;13315;48.274;-1.900;2022-12-11T10:30:47;22.67;;;11.85;;
25365;SDS011;13315;48.274;-1.900;2022-12-11T10:33:19;22.45;;;11.73;;
25365;SDS011;13315;48.274;-1.900;2022-12-11T10:38:19;25.00;;;12.27;;
25365;SDS011;13315;48.274;-1.900;2022-12-11T10:40:49;19.60;;;11.52;;
25365;SDS011;13315;48.274;-1.900;2022-12-11T10:43:16;22.45;;;12.23;;
25365;SDS011;13315;48.274;-1.900;2022-12-11T10:45:52;23.48;;;12.48;;
25365;SDS011;13315;48.274;-1.900;2022-12-11T10:48:19;24.92;;;12.93;;
25365;SDS011;13315;48.274;-1.900;2022-12-11T10:50:54;25.00;;;12.35;;
25365;SDS011;13315;48.274;-1.900;2022-12-11T10:53:20;23.40;;;12.07;;
25365;SDS011;13315;48.274;-1.900;2022-12-11T10:55:47;21.45;;;12.93;;
25365;SDS011;13315;48.274;-1.900;2022-12-11T10:58:15;29.63;;;12.68;;
25365;SDS011;13315;48.274;-1.900;2022-12-11T11:06:15;23.25;;;12.63;;
25365;SDS011;13315;48.274;-1.900;2022-12-11T11:08:42;20.60;;;11.95;;
25365;SDS011;13315;48.274;-1.900;2022-12-11T11:11:51;23.60;;;12.70;;
25365;SDS011;13315;48.274;-1.900;2022-12-11T11:14:13;24.55;;;13.38;;
25365;SDS011;13315;48.274;-1.900;2022-12-11T11:16:40;27.63;;;13.00;;
25365;SDS011;13315;48.274;-1.900;2022-12-11T11:19:06;22.23;;;11.90;;
25365;SDS011;13315;48.274;-1.900;2022-12-11T11:21:45;23.90;;;11.95;;
25365;SDS011;13315;48.274;-1.900;2022-12-11T11:24:23;20.85;;;11.55;;
25365;SDS011;13315;48.274;-1.900;2022-12-11T11:26:51;24.15;;;12.27;;
25365;SDS011;13315;48.274;-1.900;2022-12-11T11:29:31;21.23;;;11.88;;
25365;SDS011;13315;48.274;-1.900;2022-12-11T11:32:01;21.55;;;11.90;;
25365;SDS011;13315;48.274;-1.900;2022-12-11T11:34:37;22.55;;;12.55;;
25365;SDS011;13315;48.274;-1.900;2022-12-11T11:37:03;20.45;;;13.02;;
25365;SDS011;13315;48.274;-1.900;2022-12-11T11:39:32;18.73;;;10.63;;
25365;SDS011;13315;48.274;-1.900;2022-12-11T11:42:12;21.35;;;11.63;;
25365;SDS011;13315;48.274;-1.900;2022-12-11T11:44:44;22.13;;;12.50;;
25365;SDS011;13315;48.274;-1.900;2022-12-11T11:47:19;22.08;;;12.95;;
25365;SDS011;13315;48.274;-1.900;2022-12-11T11:52:38;21.48;;;12.05;;
25365;SDS011;13315;48.274;-1.900;2022-12-11T11:55:07;25.13;;;13.20;;
25365;SDS011;13315;48.274;-1.900;2022-12-11T12:00:21;21.05;;;11.57;;
25365;SDS011;13315;48.274;-1.900;2022-12-11T12:03:08;22.48;;;12.85;;
25365;SDS011;13315;48.274;-1.900;2022-12-11T12:08:13;23.65;;;13.48;;
25365;SDS011;13315;48.274;-1.900;2022-12-11T12:13:14;21.83;;;11.45;;
25365;SDS011;13315;48.274;-1.900;2022-12-11T12:15:57;20.02;;;12.40;;
25365;SDS011;13315;48.274;-1.900;2022-12-11T12:21:01;20.40;;;11.52;;
25365;SDS011;13315;48.274;-1.900;2022-12-11T12:36:51;23.70;;;12.35;;
25365;SDS011;13315;48.274;-1.900;2022-12-11T12:39:22;21.75;;;12.57;;
25365;SDS011;13315;48.274;-1.900;2022-12-11T12:42:41;21.95;;;11.70;;
25365;SDS011;13315;48.274;-1.900;2022-12-11T12:45:02;22.23;;;11.55;;
25365;SDS011;13315;48.274;-1.900;2022-12-11T12:47:31;22.00;;;12.10;;
25365;SDS011;13315;48.274;-1.900;2022-12-11T12:49:58;21.55;;;12.20;;
25365;SDS011;13315;48.274;-1.900;2022-12-11T12:54:56;23.88;;;12.05;;
25365;SDS011;13315;48.274;-1.900;2022-12-11T12:57:41;22.75;;;12.48;;
25365;SDS011;13315;48.274;-1.900;2022-12-11T13:00:09;22.23;;;13.00;;
25365;SDS011;13315;48.274;-1.900;2022-12-11T13:02:49;20.75;;;12.55;;
25365;SDS011;13315;48.274;-1.900;2022-12-11T13:05:22;23.40;;;12.57;;
25365;SDS011;13315;48.274;-1.900;2022-12-11T13:07:51;20.92;;;11.52;;
25365;SDS011;13315;48.274;-1.900;2022-12-11T13:10:25;20.08;;;11.90;;
25365;SDS011;13315;48.274;-1.900;2022-12-11T13:12:52;20.48;;;11.68;;
25365;SDS011;13315;48.274;-1.900;2022-12-11T13:15:38;24.25;;;12.57;;
25365;SDS011;13315;48.274;-1.900;2022-12-11T13:21:01;22.45;;;12.13;;
25365;SDS011;13315;48.274;-1.900;2022-12-11T13:23:28;20.58;;;11.80;;
25365;SDS011;13315;48.274;-1.900;2022-12-11T13:25:59;21.85;;;11.93;;
25365;SDS011;13315;48.274;-1.900;2022-12-11T13:30:59;24.00;;;11.77;;
25365;SDS011;13315;48.274;-1.900;2022-12-11T13:33:25;21.38;;;11.73;;
25365;SDS011;13315;48.274;-1.900;2022-12-11T13:36:54;20.05;;;11.82;;
25365;SDS011;13315;48.274;-1.900;2022-12-11T13:39:05;21.67;;;11.00;;
25365;SDS011;13315;48.274;-1.900;2022-12-11T13:41:35;23.63;;;12.77;;
25365;SDS011;13315;48.274;-1.900;2022-12-11T13:44:01;20.75;;;11.43;;
25365;SDS011;13315;48.274;-1.900;2022-12-11T13:46:28;18.27;;;11.60;;
25365;SDS011;13315;48.274;-1.900;2022-12-11T13:49:05;20.20;;;11.47;;
25365;SDS011;13315;48.274;-1.900;2022-12-11T13:51:32;24.15;;;11.75;;
25365;SDS011;13315;48.274;-1.900;2022-12-11T13:56:32;21.90;;;11.18;;
25365;SDS011;13315;48.274;-1.900;2022-12-11T13:58:58;19.90;;;11.90;;
25365;SDS011;13315;48.274;-1.900;2022-12-11T14:01:28;20.00;;;11.43;;
25365;SDS011;13315;48.274;-1.900;2022-12-11T14:03:56;23.88;;;11.80;;
25365;SDS011;13315;48.274;-1.900;2022-12-11T14:06:23;22.55;;;11.82;;
25365;SDS011;13315;48.274;-1.900;2022-12-11T14:08:50;21.80;;;12.05;;
25365;SDS011;13315;48.274;-1.900;2022-12-11T14:11:25;21.77;;;11.73;;
25365;SDS011;13315;48.274;-1.900;2022-12-11T14:13:52;19.02;;;11.65;;
25365;SDS011;13315;48.274;-1.900;2022-12-11T14:16:19;23.08;;;11.75;;
25365;SDS011;13315;48.274;-1.900;2022-12-11T14:18:47;19.73;;;11.55;;
25365;SDS011;13315;48.274;-1.900;2022-12-11T14:21:20;19.30;;;11.25;;
25365;SDS011;13315;48.274;-1.900;2022-12-11T14:23:51;17.60;;;11.25;;
25365;SDS011;13315;48.274;-1.900;2022-12-11T14:26:19;19.65;;;11.90;;
25365;SDS011;13315;48.274;-1.900;2022-12-11T14:28:45;22.92;;;12.32;;
25365;SDS011;13315;48.274;-1.900;2022-12-11T14:31:13;18.98;;;10.82;;
25365;SDS011;13315;48.274;-1.900;2022-12-11T14:33:41;17.42;;;10.75;;
25365;SDS011;13315;48.274;-1.900;2022-12-11T14:36:09;20.77;;;11.65;;
25365;SDS011;13315;48.274;-1.900;2022-12-11T14:38:42;21.90;;;11.10;;
25365;SDS011;13315;48.274;-1.900;2022-12-11T14:41:15;21.17;;;11.50;;
25365;SDS011;13315;48.274;-1.900;2022-12-11T14:43:43;19.98;;;11.50;;
25365;SDS011;13315;48.274;-1.900;2022-12-11T14:46:14;17.92;;;10.30;;
25365;SDS011;13315;48.274;-1.900;2022-12-11T14:48:43;19.38;;;10.65;;
25365;SDS011;13315;48.274;-1.900;2022-12-11T14:51:13;20.10;;;11.57;;
25365;SDS011;13315;48.274;-1.900;2022-12-11T14:53:41;17.13;;;10.20;;
25365;SDS011;13315;48.274;-1.900;2022-12-11T14:56:12;17.85;;;10.43;;
25365;SDS011;13315;48.274;-1.900;2022-12-11T14:58:42;16.38;;;8.88;;
25365;SDS011;13315;48.274;-1.900;2022-12-11T15:01:28;17.27;;;9.10;;
25365;SDS011;13315;48.274;-1.900;2022-12-11T15:04:15;14.55;;;8.75;;
25365;SDS011;13315;48.274;-1.900;2022-12-11T15:06:46;14.80;;;9.35;;
25365;SDS011;13315;48.274;-1.900;2022-12-11T15:11:41;16.90;;;9.25;;
25365;SDS011;13315;48.274;-1.900;2022-12-11T15:14:08;18.58;;;9.88;;
25365;SDS011;13315;48.274;-1.900;2022-12-11T15:16:36;15.23;;;9.05;;
25365;SDS011;13315;48.274;-1.900;2022-12-11T15:19:03;15.90;;;8.95;;
25365;SDS011;13315;48.274;-1.900;2022-12-11T15:21:35;15.57;;;9.15;;
25365;SDS011;13315;48.274;-1.900;2022-12-11T15:24:03;15.55;;;9.05;;
25365;SDS011;13315;48.274;-1.900;2022-12-11T15:26:34;17.50;;;9.48;;
25365;SDS011;13315;48.274;-1.900;2022-12-11T15:29:01;13.60;;;8.48;;
25365;SDS011;13315;48.274;-1.900;2022-12-11T15:31:29;15.88;;;9.60;;
25365;SDS011;13315;48.274;-1.900;2022-12-11T15:33:55;16.45;;;9.27;;
25365;SDS011;13315;48.274;-1.900;2022-12-11T15:36:29;18.33;;;9.15;;
25365;SDS011;13315;48.274;-1.900;2022-12-11T15:38:55;14.95;;;9.27;;
25365;SDS011;13315;48.274;-1.900;2022-12-11T15:41:21;16.75;;;9.48;;
25365;SDS011;13315;48.274;-1.900;2022-12-11T15:43:49;17.38;;;9.80;;